sensor_id;sensor_type;location;lat;lon;timestamp;pressure;altitude;pressure_sealevel;temperature;humidity
64844;BME280;51310;52.198;5.422;2022-09-19T00:01:54;101552.81;;;10.23;100.00
64844;BME280;51310;52.198;5.422;2022-09-19T00:04:25;101551.69;;;10.28;100.00
64844;BME280;51310;52.198;5.422;2022-09-19T00:06:54;101547.25;;;10.27;100.00
64844;BME280;51310;52.198;5.422;2022-09-19T00:09:25;101552.03;;;10.31;100.00
64844;BME280;51310;52.198;5.422;2022-09-19T00:11:54;101547.25;;;10.27;100.00
64844;BME280;51310;52.198;5.422;2022-09-19T00:14:26;101548.03;;;10.26;100.00
64844;BME280;51310;52.198;5.422;2022-09-19T00:17:00;101549.09;;;10.28;100.00
64844;BME280;51310;52.198;5.422;2022-09-19T00:19:28;101549.84;;;10.27;100.00
64844;BME280;51310;52.198;5.422;2022-09-19T00:21:58;101552.22;;;10.25;100.00
64844;BME280;51310;52.198;5.422;2022-09-19T00:24:26;101554.25;;;10.28;100.00
64844;BME280;51310;52.198;5.422;2022-09-19T00:27:16;101557.09;;;10.38;100.00
64844;BME280;51310;52.198;5.422;2022-09-19T00:29:48;101550.63;;;10.42;100.00
64844;BME280;51310;52.198;5.422;2022-09-19T00:32:15;101550.94;;;10.45;100.00
64844;BME280;51310;52.198;5.422;2022-09-19T00:34:45;101551.63;;;10.51;100.00
64844;BME280;51310;52.198;5.422;2022-09-19T00:37:15;101554.38;;;10.53;100.00
64844;BME280;51310;52.198;5.422;2022-09-19T00:39:43;101554.38;;;10.53;100.00
64844;BME280;51310;52.198;5.422;2022-09-19T00:42:17;101555.44;;;10.55;100.00
64844;BME280;51310;52.198;5.422;2022-09-19T00:44:59;101554.47;;;10.45;100.00
64844;BME280;51310;52.198;5.422;2022-09-19T00:47:33;101559.66;;;10.38;100.00
64844;BME280;51310;52.198;5.422;2022-09-19T00:50:10;101561.25;;;10.29;100.00
64844;BME280;51310;52.198;5.422;2022-09-19T00:52:47;101561.75;;;10.34;100.00
64844;BME280;51310;52.198;5.422;2022-09-19T00:55:17;101566.47;;;10.38;100.00
64844;BME280;51310;52.198;5.422;2022-09-19T00:58:23;101559.34;;;10.35;100.00
64844;BME280;51310;52.198;5.422;2022-09-19T01:00:55;101556.84;;;10.44;100.00
64844;BME280;51310;52.198;5.422;2022-09-19T01:03:22;101560.91;;;10.42;100.00
64844;BME280;51310;52.198;5.422;2022-09-19T01:09:38;101565.09;;;10.25;100.00
64844;BME280;51310;52.198;5.422;2022-09-19T01:18:09;101562.41;;;10.01;100.00
64844;BME280;51310;52.198;5.422;2022-09-19T01:27:26;101570.53;;;9.97;100.00
64844;BME280;51310;52.198;5.422;2022-09-19T01:32:47;101564.47;;;9.96;100.00
64844;BME280;51310;52.198;5.422;2022-09-19T01:35:24;101567.28;;;9.91;100.00
64844;BME280;51310;52.198;5.422;2022-09-19T01:38:03;101567.63;;;9.94;100.00
64844;BME280;51310;52.198;5.422;2022-09-19T01:40:32;101568.66;;;10.03;100.00
64844;BME280;51310;52.198;5.422;2022-09-19T01:42:58;101569.38;;;10.02;100.00
64844;BME280;51310;52.198;5.422;2022-09-19T01:45:34;101577.63;;;10.06;100.00
64844;BME280;51310;52.198;5.422;2022-09-19T01:49:01;101570.81;;;10.07;100.00
64844;BME280;51310;52.198;5.422;2022-09-19T01:51:38;101580.81;;;9.97;100.00
64844;BME280;51310;52.198;5.422;2022-09-19T02:00:52;101588.66;;;9.82;100.00
64844;BME280;51310;52.198;5.422;2022-09-19T02:03:53;101587.53;;;9.88;100.00
64844;BME280;51310;52.198;5.422;2022-09-19T02:06:50;101586.53;;;9.94;100.00
64844;BME280;51310;52.198;5.422;2022-09-19T02:09:44;101591.88;;;10.12;100.00
64844;BME280;51310;52.198;5.422;2022-09-19T02:12:18;101582.69;;;10.14;100.00
64844;BME280;51310;52.198;5.422;2022-09-19T02:14:51;101586.66;;;10.19;100.00
64844;BME280;51310;52.198;5.422;2022-09-19T02:17:52;101590.81;;;10.25;100.00
64844;BME280;51310;52.198;5.422;2022-09-19T02:20:33;101592.31;;;10.31;100.00
64844;BME280;51310;52.198;5.422;2022-09-19T02:23:27;101583.75;;;10.39;100.00
64844;BME280;51310;52.198;5.422;2022-09-19T02:25:58;101587.25;;;10.39;100.00
64844;BME280;51310;52.198;5.422;2022-09-19T02:28:35;101591.22;;;10.44;100.00
64844;BME280;51310;52.198;5.422;2022-09-19T02:31:07;101597.44;;;10.46;100.00
64844;BME280;51310;52.198;5.422;2022-09-19T02:33:36;101596.03;;;10.57;100.00
64844;BME280;51310;52.198;5.422;2022-09-19T02:36:12;101603.66;;;10.64;100.00
64844;BME280;51310;52.198;5.422;2022-09-19T02:39:22;101601.09;;;10.64;100.00
64844;BME280;51310;52.198;5.422;2022-09-19T02:45:12;101597.81;;;10.50;100.00
64844;BME280;51310;52.198;5.422;2022-09-19T02:47:51;101597.69;;;10.41;100.00
64844;BME280;51310;52.198;5.422;2022-09-19T02:53:22;101604.91;;;10.36;100.00
64844;BME280;51310;52.198;5.422;2022-09-19T02:55:56;101594.59;;;10.36;100.00
64844;BME280;51310;52.198;5.422;2022-09-19T02:58:30;101601.25;;;10.34;100.00
64844;BME280;51310;52.198;5.422;2022-09-19T03:01:10;101599.75;;;10.36;100.00
64844;BME280;51310;52.198;5.422;2022-09-19T03:03:47;101601.41;;;10.36;100.00
64844;BME280;51310;52.198;5.422;2022-09-19T03:09:27;101608.16;;;10.42;100.00
64844;BME280;51310;52.198;5.422;2022-09-19T03:12:14;101603.91;;;10.43;100.00
64844;BME280;51310;52.198;5.422;2022-09-19T03:14:48;101603.34;;;10.45;100.00
64844;BME280;51310;52.198;5.422;2022-09-19T03:17:29;101607.91;;;10.48;100.00
64844;BME280;51310;52.198;5.422;2022-09-19T03:19:58;101608.09;;;10.50;100.00
64844;BME280;51310;52.198;5.422;2022-09-19T03:22:24;101614.06;;;10.41;100.00
64844;BME280;51310;52.198;5.422;2022-09-19T03:24:51;101609.53;;;10.32;100.00
64844;BME280;51310;52.198;5.422;2022-09-19T03:27:17;101617.09;;;10.30;100.00
64844;BME280;51310;52.198;5.422;2022-09-19T03:29:44;101616.69;;;10.34;100.00
64844;BME280;51310;52.198;5.422;2022-09-19T03:32:10;101620.69;;;10.39;100.00
64844;BME280;51310;52.198;5.422;2022-09-19T03:34:36;101622.78;;;10.27;100.00
64844;BME280;51310;52.198;5.422;2022-09-19T03:37:02;101617.03;;;10.37;100.00
64844;BME280;51310;52.198;5.422;2022-09-19T03:39:29;101625.75;;;10.23;100.00
64844;BME280;51310;52.198;5.422;2022-09-19T03:41:55;101633.06;;;10.27;100.00
64844;BME280;51310;52.198;5.422;2022-09-19T03:44:21;101632.16;;;10.27;100.00
64844;BME280;51310;52.198;5.422;2022-09-19T03:46:48;101645.78;;;10.26;100.00
64844;BME280;51310;52.198;5.422;2022-09-19T03:49:14;101642.47;;;10.27;100.00
64844;BME280;51310;52.198;5.422;2022-09-19T03:51:41;101635.84;;;10.06;100.00
64844;BME280;51310;52.198;5.422;2022-09-19T03:54:06;101639.25;;;9.98;100.00
64844;BME280;51310;52.198;5.422;2022-09-19T03:56:33;101629.84;;;9.98;100.00
64844;BME280;51310;52.198;5.422;2022-09-19T03:58:59;101623.28;;;9.70;100.00
64844;BME280;51310;52.198;5.422;2022-09-19T04:01:25;101623.69;;;9.66;100.00
64844;BME280;51310;52.198;5.422;2022-09-19T04:03:50;101633.59;;;9.63;100.00
64844;BME280;51310;52.198;5.422;2022-09-19T04:06:17;101627.16;;;9.67;100.00
64844;BME280;51310;52.198;5.422;2022-09-19T04:08:43;101632.22;;;9.74;100.00
64844;BME280;51310;52.198;5.422;2022-09-19T04:11:09;101634.53;;;9.63;100.00
64844;BME280;51310;52.198;5.422;2022-09-19T04:13:36;101633.00;;;9.73;100.00
64844;BME280;51310;52.198;5.422;2022-09-19T04:16:03;101641.09;;;9.69;100.00
64844;BME280;51310;52.198;5.422;2022-09-19T04:18:30;101635.31;;;9.55;100.00
64844;BME280;51310;52.198;5.422;2022-09-19T04:20:55;101633.78;;;9.34;100.00
64844;BME280;51310;52.198;5.422;2022-09-19T04:23:23;101633.72;;;9.41;100.00
64844;BME280;51310;52.198;5.422;2022-09-19T04:25:50;101634.56;;;9.26;100.00
64844;BME280;51310;52.198;5.422;2022-09-19T04:28:16;101639.16;;;9.21;100.00
64844;BME280;51310;52.198;5.422;2022-09-19T04:30:44;101638.84;;;9.18;100.00
64844;BME280;51310;52.198;5.422;2022-09-19T04:33:13;101643.69;;;9.01;100.00
64844;BME280;51310;52.198;5.422;2022-09-19T04:35:41;101653.75;;;8.99;100.00
64844;BME280;51310;52.198;5.422;2022-09-19T04:38:14;101658.53;;;9.03;100.00
64844;BME280;51310;52.198;5.422;2022-09-19T04:40:46;101666.56;;;9.07;100.00
64844;BME280;51310;52.198;5.422;2022-09-19T04:43:17;101654.53;;;9.36;100.00
64844;BME280;51310;52.198;5.422;2022-09-19T04:45:44;101657.16;;;9.52;100.00
64844;BME280;51310;52.198;5.422;2022-09-19T04:48:14;101658.66;;;9.50;100.00
64844;BME280;51310;52.198;5.422;2022-09-19T04:50:40;101659.44;;;9.41;100.00
64844;BME280;51310;52.198;5.422;2022-09-19T04:53:09;101662.94;;;9.42;100.00
64844;BME280;51310;52.198;5.422;2022-09-19T04:55:37;101662.53;;;9.46;100.00
64844;BME280;51310;52.198;5.422;2022-09-19T04:58:03;101673.47;;;9.29;100.00
64844;BME280;51310;52.198;5.422;2022-09-19T05:00:30;101676.97;;;9.22;100.00
64844;BME280;51310;52.198;5.422;2022-09-19T05:03:11;101674.41;;;9.22;100.00
64844;BME280;51310;52.198;5.422;2022-09-19T05:05:42;101677.28;;;9.33;100.00
64844;BME280;51310;52.198;5.422;2022-09-19T05:08:12;101678.97;;;9.25;100.00
64844;BME280;51310;52.198;5.422;2022-09-19T05:10:41;101678.97;;;9.25;100.00
64844;BME280;51310;52.198;5.422;2022-09-19T05:13:18;101686.31;;;9.29;100.00
64844;BME280;51310;52.198;5.422;2022-09-19T05:15:45;101686.63;;;9.32;100.00
64844;BME280;51310;52.198;5.422;2022-09-19T05:18:11;101684.91;;;9.47;100.00
64844;BME280;51310;52.198;5.422;2022-09-19T05:20:39;101686.75;;;9.48;100.00
64844;BME280;51310;52.198;5.422;2022-09-19T05:23:05;101685.81;;;9.48;100.00
64844;BME280;51310;52.198;5.422;2022-09-19T05:25:37;101694.09;;;9.45;100.00
64844;BME280;51310;52.198;5.422;2022-09-19T05:28:04;101691.59;;;9.31;100.00
64844;BME280;51310;52.198;5.422;2022-09-19T05:30:45;101683.50;;;9.35;100.00
64844;BME280;51310;52.198;5.422;2022-09-19T05:33:12;101690.13;;;9.33;100.00
64844;BME280;51310;52.198;5.422;2022-09-19T05:35:38;101696.72;;;9.31;100.00
64844;BME280;51310;52.198;5.422;2022-09-19T05:38:05;101689.16;;;9.39;100.00
64844;BME280;51310;52.198;5.422;2022-09-19T05:40:32;101692.53;;;9.31;100.00
64844;BME280;51310;52.198;5.422;2022-09-19T05:42:58;101701.56;;;9.20;100.00
64844;BME280;51310;52.198;5.422;2022-09-19T05:45:29;101698.38;;;9.30;100.00
64844;BME280;51310;52.198;5.422;2022-09-19T05:48:06;101705.38;;;9.31;100.00
64844;BME280;51310;52.198;5.422;2022-09-19T05:50:33;101702.19;;;9.41;100.00
64844;BME280;51310;52.198;5.422;2022-09-19T05:52:59;101709.47;;;9.52;100.00
64844;BME280;51310;52.198;5.422;2022-09-19T05:55:44;101707.59;;;9.58;100.00
64844;BME280;51310;52.198;5.422;2022-09-19T05:58:10;101697.69;;;9.61;100.00
64844;BME280;51310;52.198;5.422;2022-09-19T06:00:36;101700.09;;;9.60;100.00
64844;BME280;51310;52.198;5.422;2022-09-19T06:03:05;101710.16;;;9.65;100.00
64844;BME280;51310;52.198;5.422;2022-09-19T06:05:40;101715.38;;;9.51;100.00
64844;BME280;51310;52.198;5.422;2022-09-19T06:08:07;101717.94;;;9.51;100.00
64844;BME280;51310;52.198;5.422;2022-09-19T06:10:37;101716.94;;;9.65;100.00
64844;BME280;51310;52.198;5.422;2022-09-19T06:13:05;101722.66;;;9.62;100.00
64844;BME280;51310;52.198;5.422;2022-09-19T06:15:35;101715.63;;;9.69;100.00
64844;BME280;51310;52.198;5.422;2022-09-19T06:18:01;101724.06;;;9.75;100.00
64844;BME280;51310;52.198;5.422;2022-09-19T06:20:27;101716.53;;;9.76;100.00
64844;BME280;51310;52.198;5.422;2022-09-19T06:23:01;101715.81;;;9.70;100.00
64844;BME280;51310;52.198;5.422;2022-09-19T06:25:34;101724.91;;;9.82;100.00
64844;BME280;51310;52.198;5.422;2022-09-19T06:28:09;101731.41;;;10.02;100.00
64844;BME280;51310;52.198;5.422;2022-09-19T06:30:37;101733.63;;;9.99;100.00
64844;BME280;51310;52.198;5.422;2022-09-19T06:33:05;101728.00;;;10.17;100.00
64844;BME280;51310;52.198;5.422;2022-09-19T06:35:35;101729.75;;;10.25;100.00
64844;BME280;51310;52.198;5.422;2022-09-19T06:38:04;101726.09;;;10.23;100.00
64844;BME280;51310;52.198;5.422;2022-09-19T06:40:33;101736.13;;;10.36;100.00
64844;BME280;51310;52.198;5.422;2022-09-19T06:43:04;101736.78;;;10.50;100.00
64844;BME280;51310;52.198;5.422;2022-09-19T06:45:33;101736.63;;;10.64;100.00
64844;BME280;51310;52.198;5.422;2022-09-19T06:48:05;101748.19;;;10.67;100.00
64844;BME280;51310;52.198;5.422;2022-09-19T06:50:33;101747.72;;;10.79;100.00
64844;BME280;51310;52.198;5.422;2022-09-19T06:52:59;101753.47;;;10.92;100.00
64844;BME280;51310;52.198;5.422;2022-09-19T06:55:25;101743.03;;;11.06;100.00
64844;BME280;51310;52.198;5.422;2022-09-19T06:58:02;101744.50;;;11.20;100.00
64844;BME280;51310;52.198;5.422;2022-09-19T07:00:33;101748.81;;;11.44;100.00
64844;BME280;51310;52.198;5.422;2022-09-19T07:03:12;101753.56;;;11.64;100.00
64844;BME280;51310;52.198;5.422;2022-09-19T07:05:43;101746.69;;;11.81;100.00
64844;BME280;51310;52.198;5.422;2022-09-19T07:08:12;101750.91;;;11.96;100.00
64844;BME280;51310;52.198;5.422;2022-09-19T07:10:40;101753.03;;;12.16;100.00
64844;BME280;51310;52.198;5.422;2022-09-19T07:13:10;101749.94;;;12.36;100.00
64844;BME280;51310;52.198;5.422;2022-09-19T07:15:39;101752.91;;;12.57;100.00
64844;BME280;51310;52.198;5.422;2022-09-19T07:18:05;101765.88;;;12.74;100.00
64844;BME280;51310;52.198;5.422;2022-09-19T07:20:37;101763.50;;;12.84;100.00
64844;BME280;51310;52.198;5.422;2022-09-19T07:23:13;101761.09;;;12.86;100.00
64844;BME280;51310;52.198;5.422;2022-09-19T07:25:45;101761.38;;;12.89;99.22
64844;BME280;51310;52.198;5.422;2022-09-19T07:28:15;101764.13;;;12.90;97.74
64844;BME280;51310;52.198;5.422;2022-09-19T07:30:44;101763.22;;;12.90;98.59
64844;BME280;51310;52.198;5.422;2022-09-19T07:33:14;101769.28;;;12.90;97.44
64844;BME280;51310;52.198;5.422;2022-09-19T07:35:42;101762.44;;;12.91;98.54
64844;BME280;51310;52.198;5.422;2022-09-19T07:38:13;101771.13;;;12.91;97.58
64844;BME280;51310;52.198;5.422;2022-09-19T07:40:43;101775.38;;;12.91;98.66
64844;BME280;51310;52.198;5.422;2022-09-19T07:43:11;101768.22;;;12.88;98.14
64844;BME280;51310;52.198;5.422;2022-09-19T07:45:48;101776.34;;;13.00;97.49
64844;BME280;51310;52.198;5.422;2022-09-19T07:48:16;101774.34;;;13.06;97.35
64844;BME280;51310;52.198;5.422;2022-09-19T07:50:43;101773.28;;;13.13;96.96
64844;BME280;51310;52.198;5.422;2022-09-19T07:53:15;101781.66;;;13.19;97.02
64844;BME280;51310;52.198;5.422;2022-09-19T07:55:53;101779.25;;;13.21;95.38
64844;BME280;51310;52.198;5.422;2022-09-19T07:58:25;101790.72;;;13.31;94.97
64844;BME280;51310;52.198;5.422;2022-09-19T08:00:52;101798.75;;;13.34;96.46
64844;BME280;51310;52.198;5.422;2022-09-19T08:03:20;101799.09;;;13.55;94.95
64844;BME280;51310;52.198;5.422;2022-09-19T08:05:50;101809.47;;;13.55;94.41
64844;BME280;51310;52.198;5.422;2022-09-19T08:08:20;101800.91;;;13.65;95.02
64844;BME280;51310;52.198;5.422;2022-09-19T08:10:47;101804.91;;;13.52;93.39
64844;BME280;51310;52.198;5.422;2022-09-19T08:13:15;101825.41;;;13.51;92.90
64844;BME280;51310;52.198;5.422;2022-09-19T08:15:45;101824.06;;;13.46;92.29
64844;BME280;51310;52.198;5.422;2022-09-19T08:18:17;101824.69;;;13.52;91.93
64844;BME280;51310;52.198;5.422;2022-09-19T08:20:45;101819.50;;;13.61;91.86
64844;BME280;51310;52.198;5.422;2022-09-19T08:23:15;101825.72;;;13.63;92.72
64844;BME280;51310;52.198;5.422;2022-09-19T08:25:44;101839.00;;;13.74;91.97
64844;BME280;51310;52.198;5.422;2022-09-19T08:28:17;101834.56;;;13.65;91.76
64844;BME280;51310;52.198;5.422;2022-09-19T08:30:45;101827.13;;;13.59;92.17
64844;BME280;51310;52.198;5.422;2022-09-19T08:33:14;101836.56;;;13.59;93.57
64844;BME280;51310;52.198;5.422;2022-09-19T08:35:41;101838.06;;;13.65;94.24
64844;BME280;51310;52.198;5.422;2022-09-19T08:38:10;101836.06;;;13.63;92.65
64844;BME280;51310;52.198;5.422;2022-09-19T08:43:10;101853.16;;;13.78;91.81
64844;BME280;51310;52.198;5.422;2022-09-19T08:46:14;101838.81;;;13.82;89.75
64844;BME280;51310;52.198;5.422;2022-09-19T08:48:56;101846.59;;;13.64;89.20
64844;BME280;51310;52.198;5.422;2022-09-19T08:54:50;101842.47;;;13.58;89.19
64844;BME280;51310;52.198;5.422;2022-09-19T08:57:29;101845.50;;;13.62;90.02
64844;BME280;51310;52.198;5.422;2022-09-19T09:00:10;101844.16;;;13.66;86.40
64844;BME280;51310;52.198;5.422;2022-09-19T09:03:09;101844.47;;;13.78;86.30
64844;BME280;51310;52.198;5.422;2022-09-19T09:05:47;101846.16;;;13.86;83.83
64844;BME280;51310;52.198;5.422;2022-09-19T09:15:08;101846.72;;;14.27;85.63
64844;BME280;51310;52.198;5.422;2022-09-19T09:17:54;101854.53;;;13.92;86.23
64844;BME280;51310;52.198;5.422;2022-09-19T09:20:39;101849.16;;;13.64;89.11
64844;BME280;51310;52.198;5.422;2022-09-19T09:23:16;101853.13;;;13.52;88.76
64844;BME280;51310;52.198;5.422;2022-09-19T09:26:16;101860.47;;;13.82;88.13
64844;BME280;51310;52.198;5.422;2022-09-19T09:29:23;101855.59;;;13.85;88.19
64844;BME280;51310;52.198;5.422;2022-09-19T09:32:13;101852.38;;;14.14;87.04
64844;BME280;51310;52.198;5.422;2022-09-19T09:35:11;101858.78;;;14.00;88.13
64844;BME280;51310;52.198;5.422;2022-09-19T09:38:36;101856.66;;;14.05;88.24
64844;BME280;51310;52.198;5.422;2022-09-19T09:41:24;101854.81;;;14.39;87.27
64844;BME280;51310;52.198;5.422;2022-09-19T09:49:26;101854.69;;;14.11;89.09
64844;BME280;51310;52.198;5.422;2022-09-19T09:52:42;101859.25;;;13.87;91.61
64844;BME280;51310;52.198;5.422;2022-09-19T09:58:58;101863.06;;;13.82;88.13
64844;BME280;51310;52.198;5.422;2022-09-19T10:01:53;101869.16;;;13.91;87.61
64844;BME280;51310;52.198;5.422;2022-09-19T10:04:56;101869.59;;;13.87;89.29
64844;BME280;51310;52.198;5.422;2022-09-19T10:07:48;101872.94;;;14.04;88.23
64844;BME280;51310;52.198;5.422;2022-09-19T10:10:27;101868.06;;;14.24;86.48
64844;BME280;51310;52.198;5.422;2022-09-19T10:13:04;101876.28;;;14.03;88.90
64844;BME280;51310;52.198;5.422;2022-09-19T10:15:38;101871.72;;;13.91;89.45
64844;BME280;51310;52.198;5.422;2022-09-19T10:18:13;101879.50;;;13.91;88.72
64844;BME280;51310;52.198;5.422;2022-09-19T10:20:52;101862.25;;;14.27;90.07
64844;BME280;51310;52.198;5.422;2022-09-19T10:23:29;101868.97;;;14.25;90.78
64844;BME280;51310;52.198;5.422;2022-09-19T10:26:04;101867.16;;;14.06;86.65
64844;BME280;51310;52.198;5.422;2022-09-19T10:28:51;101873.88;;;13.95;82.63
64844;BME280;51310;52.198;5.422;2022-09-19T10:31:35;101885.56;;;14.27;82.29
64844;BME280;51310;52.198;5.422;2022-09-19T10:34:23;101881.19;;;14.08;77.91
64844;BME280;51310;52.198;5.422;2022-09-19T10:36:52;101883.88;;;14.45;77.04
64844;BME280;51310;52.198;5.422;2022-09-19T10:39:22;101878.69;;;14.45;75.82
64844;BME280;51310;52.198;5.422;2022-09-19T10:41:48;101881.28;;;14.45;75.43
64844;BME280;51310;52.198;5.422;2022-09-19T10:44:24;101885.91;;;14.30;76.20
64844;BME280;51310;52.198;5.422;2022-09-19T10:46:57;101889.53;;;14.14;76.42
64844;BME280;51310;52.198;5.422;2022-09-19T10:49:38;101893.06;;;14.06;77.53
64844;BME280;51310;52.198;5.422;2022-09-19T10:52:22;101887.72;;;14.13;79.28
64844;BME280;51310;52.198;5.422;2022-09-19T10:55:00;101884.06;;;14.11;79.84
64844;BME280;51310;52.198;5.422;2022-09-19T10:57:49;101876.28;;;14.20;79.21
64844;BME280;51310;52.198;5.422;2022-09-19T11:00:29;101876.00;;;14.26;78.30
64844;BME280;51310;52.198;5.422;2022-09-19T11:03:00;101876.28;;;14.29;80.02
64844;BME280;51310;52.198;5.422;2022-09-19T11:06:15;101872.75;;;14.54;79.01
64844;BME280;51310;52.198;5.422;2022-09-19T11:08:48;101874.75;;;14.57;78.74
64844;BME280;51310;52.198;5.422;2022-09-19T11:14:12;101868.22;;;14.26;76.88
64844;BME280;51310;52.198;5.422;2022-09-19T11:17:07;101870.63;;;14.42;76.44
64844;BME280;51310;52.198;5.422;2022-09-19T11:20:20;101873.81;;;14.65;74.66
64844;BME280;51310;52.198;5.422;2022-09-19T11:26:27;101870.75;;;15.14;68.91
64844;BME280;51310;52.198;5.422;2022-09-19T11:35:18;101889.97;;;14.63;73.13
64844;BME280;51310;52.198;5.422;2022-09-19T11:44:23;101890.72;;;14.44;74.98
64844;BME280;51310;52.198;5.422;2022-09-19T11:50:20;101885.97;;;14.75;75.45
64844;BME280;51310;52.198;5.422;2022-09-19T11:53:32;101889.78;;;14.79;73.97
64844;BME280;51310;52.198;5.422;2022-09-19T11:56:41;101889.19;;;14.64;76.20
64844;BME280;51310;52.198;5.422;2022-09-19T11:59:45;101882.22;;;14.45;73.32
64844;BME280;51310;52.198;5.422;2022-09-19T12:06:10;101886.31;;;14.52;73.44
64844;BME280;51310;52.198;5.422;2022-09-19T12:09:14;101874.59;;;14.55;73.14
64844;BME280;51310;52.198;5.422;2022-09-19T12:12:06;101866.16;;;14.75;72.65
64844;BME280;51310;52.198;5.422;2022-09-19T12:14:41;101873.13;;;14.85;72.98
64844;BME280;51310;52.198;5.422;2022-09-19T12:17:21;101875.03;;;14.69;74.23
64844;BME280;51310;52.198;5.422;2022-09-19T12:20:15;101886.59;;;14.72;75.38
64844;BME280;51310;52.198;5.422;2022-09-19T12:22:54;101881.75;;;14.41;76.18
64844;BME280;51310;52.198;5.422;2022-09-19T12:25:27;101876.84;;;14.52;75.95
64844;BME280;51310;52.198;5.422;2022-09-19T12:28:06;101881.28;;;14.45;76.40
64844;BME280;51310;52.198;5.422;2022-09-19T12:30:42;101887.44;;;14.02;75.50
64844;BME280;51310;52.198;5.422;2022-09-19T12:36:18;101886.91;;;13.62;78.53
64844;BME280;51310;52.198;5.422;2022-09-19T12:41:59;101888.16;;;13.74;79.18
64844;BME280;51310;52.198;5.422;2022-09-19T12:44:53;101891.00;;;13.60;80.42
64844;BME280;51310;52.198;5.422;2022-09-19T12:50:44;101879.00;;;13.61;81.14
64844;BME280;51310;52.198;5.422;2022-09-19T12:53:32;101881.75;;;13.80;81.99
64844;BME280;51310;52.198;5.422;2022-09-19T12:56:22;101891.81;;;13.94;81.84
64844;BME280;51310;52.198;5.422;2022-09-19T12:59:22;101887.53;;;14.29;82.74
64844;BME280;51310;52.198;5.422;2022-09-19T13:02:32;101885.41;;;14.51;77.66
64844;BME280;51310;52.198;5.422;2022-09-19T13:05:18;101889.97;;;14.71;76.83
64844;BME280;51310;52.198;5.422;2022-09-19T13:07:55;101909.78;;;14.36;79.83
64844;BME280;51310;52.198;5.422;2022-09-19T13:13:55;101899.69;;;12.85;95.44
64844;BME280;51310;52.198;5.422;2022-09-19T13:16:33;101908.63;;;12.56;98.71
64844;BME280;51310;52.198;5.422;2022-09-19T13:19:02;101904.06;;;12.53;99.68
64844;BME280;51310;52.198;5.422;2022-09-19T13:21:49;101893.38;;;12.50;99.29
64844;BME280;51310;52.198;5.422;2022-09-19T13:24:55;101900.41;;;12.51;99.01
64844;BME280;51310;52.198;5.422;2022-09-19T13:27:24;101889.56;;;12.71;98.85
64844;BME280;51310;52.198;5.422;2022-09-19T13:29:51;101894.41;;;12.92;99.06
64844;BME280;51310;52.198;5.422;2022-09-19T13:32:31;101899.94;;;13.13;97.46
64844;BME280;51310;52.198;5.422;2022-09-19T13:35:18;101903.59;;;13.40;95.60
64844;BME280;51310;52.198;5.422;2022-09-19T13:37:57;101903.47;;;13.56;96.14
64844;BME280;51310;52.198;5.422;2022-09-19T13:40:37;101896.66;;;13.73;95.36
64844;BME280;51310;52.198;5.422;2022-09-19T13:46:17;101896.84;;;13.92;90.24
64844;BME280;51310;52.198;5.422;2022-09-19T13:49:12;101892.44;;;14.00;90.40
64844;BME280;51310;52.198;5.422;2022-09-19T13:51:43;101893.97;;;14.07;86.85
64844;BME280;51310;52.198;5.422;2022-09-19T13:59:40;101886.19;;;14.33;85.98
64844;BME280;51310;52.198;5.422;2022-09-19T14:04:58;101890.47;;;14.24;82.63
64844;BME280;51310;52.198;5.422;2022-09-19T14:07:34;101879.03;;;14.22;85.48
64844;BME280;51310;52.198;5.422;2022-09-19T14:20:50;101874.31;;;15.34;83.78
64844;BME280;51310;52.198;5.422;2022-09-19T14:23:28;101884.66;;;15.06;77.54
64844;BME280;51310;52.198;5.422;2022-09-19T14:29:18;101911.94;;;11.66;100.00
64844;BME280;51310;52.198;5.422;2022-09-19T14:32:40;101911.41;;;11.23;100.00
64844;BME280;51310;52.198;5.422;2022-09-19T14:47:41;101901.47;;;11.03;100.00
64844;BME280;51310;52.198;5.422;2022-09-19T14:53:02;101890.28;;;11.18;100.00
64844;BME280;51310;52.198;5.422;2022-09-19T14:55:46;101889.97;;;11.15;100.00
64844;BME280;51310;52.198;5.422;2022-09-19T14:58:31;101892.06;;;11.26;100.00
64844;BME280;51310;52.198;5.422;2022-09-19T15:04:11;101893.03;;;11.75;100.00
64844;BME280;51310;52.198;5.422;2022-09-19T15:06:47;101893.41;;;11.94;100.00
64844;BME280;51310;52.198;5.422;2022-09-19T15:09:28;101893.41;;;12.09;100.00
64844;BME280;51310;52.198;5.422;2022-09-19T15:12:00;101884.63;;;12.32;100.00
64844;BME280;51310;52.198;5.422;2022-09-19T15:14:30;101888.22;;;12.50;100.00
64844;BME280;51310;52.198;5.422;2022-09-19T15:17:34;101883.81;;;12.73;100.00
64844;BME280;51310;52.198;5.422;2022-09-19T15:28:00;101887.88;;;12.96;100.00
64844;BME280;51310;52.198;5.422;2022-09-19T15:30:34;101882.72;;;12.96;100.00
64844;BME280;51310;52.198;5.422;2022-09-19T15:35:33;101888.56;;;13.11;100.00
64844;BME280;51310;52.198;5.422;2022-09-19T15:38:11;101893.41;;;13.08;100.00
64844;BME280;51310;52.198;5.422;2022-09-19T15:40:44;101895.56;;;13.12;100.00
64844;BME280;51310;52.198;5.422;2022-09-19T15:43:14;101887.19;;;13.14;100.00
64844;BME280;51310;52.198;5.422;2022-09-19T15:45:48;101892.72;;;13.26;100.00
64844;BME280;51310;52.198;5.422;2022-09-19T15:48:27;101900.38;;;13.33;100.00
64844;BME280;51310;52.198;5.422;2022-09-19T15:51:03;101899.31;;;13.31;100.00
64844;BME280;51310;52.198;5.422;2022-09-19T15:53:38;101894.59;;;13.36;100.00
64844;BME280;51310;52.198;5.422;2022-09-19T15:56:11;101897.03;;;13.34;100.00
64844;BME280;51310;52.198;5.422;2022-09-19T15:58:51;101900.69;;;13.37;100.00
64844;BME280;51310;52.198;5.422;2022-09-19T16:01:28;101899.94;;;13.38;100.00